Time;durP1;ratioP1;P1;durP2;ratioP2;P2;SDS_P1;SDS_P2;PMS_P1;PMS_P2;Temp;Humidity;BMP_temperature;BMP_pressure;BME280_temperature;BME280_humidity;BME280_pressure;Samples;Min_cycle;Max_cycle;Signal;HPM_P1;HPM_P2
2021/03/24 00:00:43;;;;;;;17.67;11.00;;;;;;;1.38;90.96;95262.06;5056086;28;20220;-60
2021/03/24 00:03:10;;;;;;;19.80;10.53;;;;;;;1.39;90.79;95271.28;5055791;28;20227;-60
2021/03/24 00:05:43;;;;;;;17.23;11.00;;;;;;;1.52;91.51;95261.44;5056028;28;20677;-60
2021/03/24 00:08:10;;;;;;;15.47;10.27;;;;;;;1.53;91.88;95269.91;5052908;28;20301;-60
2021/03/24 00:10:38;;;;;;;17.50;11.37;;;;;;;1.56;91.99;95262.50;5053259;28;20564;-60
2021/03/24 00:13:07;;;;;;;15.17;10.33;;;;;;;1.54;91.68;95272.22;5052473;28;20217;-60
2021/03/24 00:15:35;;;;;;;14.03;10.27;;;;;;;1.39;92.20;95266.94;5052493;28;20272;-60
2021/03/24 00:18:02;;;;;;;17.20;10.13;;;;;;;1.47;90.98;95268.28;5052517;28;20690;-60
2021/03/24 00:20:32;;;;;;;14.40;9.70;;;;;;;1.52;91.72;95264.00;5052473;28;20203;-60
2021/03/24 00:23:00;;;;;;;15.00;9.63;;;;;;;1.54;91.07;95268.88;5052423;28;20638;-61
2021/03/24 00:25:27;;;;;;;18.70;10.57;;;;;;;1.51;91.59;95265.00;5052456;28;20201;-61
2021/03/24 00:27:55;;;;;;;15.10;9.60;;;;;;;1.58;90.43;95269.94;5052344;28;20210;-61
2021/03/24 00:30:24;;;;;;;14.73;9.27;;;;;;;1.61;89.90;95254.84;5052691;28;20195;-61
2021/03/24 00:32:51;;;;;;;13.50;8.80;;;;;;;1.69;88.33;95262.09;5052393;28;20232;-61
2021/03/24 00:35:19;;;;;;;10.67;7.27;;;;;;;1.63;89.16;95254.63;5052416;28;20222;-60
2021/03/24 00:37:46;;;;;;;11.37;7.23;;;;;;;1.49;90.26;95261.94;5052401;28;20588;-61
2021/03/24 00:40:17;;;;;;;12.00;7.47;;;;;;;1.52;90.48;95260.66;5052104;28;20692;-60
2021/03/24 00:42:44;;;;;;;11.03;6.73;;;;;;;1.40;91.62;95258.25;5052153;28;20278;-61
2021/03/24 00:45:12;;;;;;;9.80;7.03;;;;;;;1.43;92.49;95252.66;5052019;28;20556;-61
2021/03/24 00:47:39;;;;;;;9.90;6.97;;;;;;;1.44;93.13;95254.22;5051911;28;20193;-59
2021/03/24 00:50:07;;;;;;;11.73;7.10;;;;;;;1.33;94.56;95247.44;5051770;28;20228;-59
2021/03/24 00:52:34;;;;;;;11.30;7.53;;;;;;;1.28;94.97;95249.94;5051979;28;20287;-59
2021/03/24 00:55:01;;;;;;;10.07;7.53;;;;;;;1.16;96.03;95244.94;5051912;28;20205;-59
2021/03/24 00:57:29;;;;;;;9.50;7.33;;;;;;;1.14;97.74;95241.88;5052012;28;20224;-59
2021/03/24 00:59:56;;;;;;;12.87;7.13;;;;;;;1.08;99.01;95239.50;5051903;28;20201;-60
2021/03/24 01:02:22;;;;;;;12.07;7.67;;;;;;;1.05;99.65;95239.94;5051642;28;20229;-59
2021/03/24 01:04:50;;;;;;;13.63;7.80;;;;;;;1.02;100.00;95235.31;5051927;28;20201;-60
2021/03/24 01:07:17;;;;;;;13.83;9.27;;;;;;;1.05;100.00;95235.59;5051606;28;20277;-60
2021/03/24 01:09:44;;;;;;;17.20;8.80;;;;;;;1.02;100.00;95230.22;5051743;28;20626;-60
2021/03/24 01:12:14;;;;;;;12.73;9.33;;;;;;;0.96;100.00;95223.47;5051366;28;20209;-60
2021/03/24 01:14:42;;;;;;;16.93;8.40;;;;;;;0.85;100.00;95223.38;5051498;28;20688;-60
2021/03/24 01:17:09;;;;;;;15.00;9.80;;;;;;;0.79;100.00;95226.91;5051875;28;20206;-60
2021/03/24 01:19:36;;;;;;;16.60;9.77;;;;;;;0.76;100.00;95226.59;5050293;28;20730;-59
2021/03/24 01:22:03;;;;;;;17.63;10.00;;;;;;;0.72;100.00;95221.19;5051778;28;20193;-59
2021/03/24 01:24:29;;;;;;;23.63;10.93;;;;;;;0.85;100.00;95213.16;5051306;28;20207;-60
2021/03/24 01:26:56;;;;;;;16.50;10.87;;;;;;;0.73;100.00;95219.41;5051262;28;20664;-60
2021/03/24 01:29:23;;;;;;;15.20;10.33;;;;;;;0.68;100.00;95215.00;5051181;28;20205;-60
2021/03/24 01:31:51;;;;;;;17.23;10.57;;;;;;;0.73;100.00;95206.63;5051201;28;20687;-60
2021/03/24 01:34:17;;;;;;;15.00;9.97;;;;;;;0.69;100.00;95206.31;5051078;28;20203;-61
2021/03/24 01:36:44;;;;;;;12.87;9.80;;;;;;;0.82;100.00;95208.50;5051036;28;20201;-60
2021/03/24 01:39:11;;;;;;;15.43;10.17;;;;;;;0.95;100.00;95207.38;5050863;28;20235;-60
2021/03/24 01:41:38;;;;;;;18.63;10.77;;;;;;;0.95;100.00;95201.50;5051024;28;20661;-59
2021/03/24 01:44:05;;;;;;;14.67;10.00;;;;;;;0.98;100.00;95193.34;5051039;28;20232;-59
2021/03/24 01:46:37;;;;;;;15.47;10.93;;;;;;;0.96;100.00;95196.13;5050786;28;20284;-59
2021/03/24 01:49:14;;;;;;;16.43;10.73;;;;;;;0.95;100.00;95191.28;5050855;28;20197;-58
2021/03/24 01:51:44;;;;;;;14.10;10.33;;;;;;;0.90;100.00;95198.88;5050664;28;20221;-59
2021/03/24 01:54:14;;;;;;;20.00;12.40;;;;;;;0.81;100.00;95189.06;5050661;28;20189;-57
2021/03/24 01:56:44;;;;;;;17.13;11.77;;;;;;;0.77;100.00;95180.31;5050702;28;20250;-59
2021/03/24 01:59:11;;;;;;;18.37;12.30;;;;;;;0.78;100.00;95179.31;5050664;28;20259;-58
2021/03/24 02:01:38;;;;;;;17.13;12.30;;;;;;;0.69;100.00;95180.00;5050771;28;20201;-59
2021/03/24 02:04:06;;;;;;;17.03;12.07;;;;;;;0.72;100.00;95180.28;5050529;28;20225;-59
2021/03/24 02:06:40;;;;;;;15.53;11.30;;;;;;;0.67;100.00;95177.66;5050424;28;20224;-58
2021/03/24 02:09:13;;;;;;;16.90;12.37;;;;;;;0.54;100.00;95179.81;5050711;28;20238;-59
2021/03/24 02:11:45;;;;;;;17.43;12.40;;;;;;;0.46;100.00;95175.88;5050353;28;20216;-59
2021/03/24 02:14:17;;;;;;;18.90;12.50;;;;;;;0.50;100.00;95176.94;5050699;28;20563;-59
2021/03/24 02:16:47;;;;;;;18.87;12.57;;;;;;;0.49;100.00;95169.53;5050374;28;20201;-58
2021/03/24 02:19:36;;;;;;;19.40;13.10;;;;;;;0.50;100.00;95166.72;5050443;28;20194;-58
2021/03/24 02:22:04;;;;;;;20.03;13.53;;;;;;;0.52;100.00;95167.25;5050302;28;20205;-59
2021/03/24 02:24:39;;;;;;;17.90;12.87;;;;;;;0.60;100.00;95171.19;5050057;28;20229;-59
2021/03/24 02:27:12;;;;;;;20.27;14.20;;;;;;;0.59;100.00;95165.31;5050188;28;20735;-58
2021/03/24 02:29:45;;;;;;;22.93;14.97;;;;;;;0.63;100.00;95160.47;5050065;28;20197;-59
2021/03/24 02:32:14;;;;;;;24.97;16.07;;;;;;;0.54;100.00;95161.91;5050255;28;20276;-59
2021/03/24 02:34:44;;;;;;;27.40;17.67;;;;;;;0.47;100.00;95156.19;5050176;28;20197;-59
2021/03/24 02:37:12;;;;;;;23.33;15.23;;;;;;;0.39;100.00;95160.72;5050448;28;20193;-59
2021/03/24 02:39:43;;;;;;;20.03;14.67;;;;;;;0.43;100.00;95151.56;5050057;28;20196;-59
2021/03/24 02:42:13;;;;;;;25.00;16.43;;;;;;;0.45;100.00;95161.53;5050020;28;20204;-58
2021/03/24 02:44:42;;;;;;;23.83;16.23;;;;;;;0.50;100.00;95156.50;5050087;28;20561;-59
2021/03/24 02:47:10;;;;;;;21.00;15.23;;;;;;;0.46;100.00;95157.97;5049922;28;20201;-62
2021/03/24 02:49:39;;;;;;;23.80;14.80;;;;;;;0.52;100.00;95159.59;5049653;28;20197;-59
2021/03/24 02:52:07;;;;;;;22.50;14.87;;;;;;;0.54;100.00;95149.91;5050167;28;20580;-59
2021/03/24 02:54:34;;;;;;;18.57;13.63;;;;;;;0.65;100.00;95153.34;5049827;28;20247;-59
2021/03/24 02:57:02;;;;;;;20.43;14.00;;;;;;;0.68;100.00;95143.41;5050186;28;20192;-59
2021/03/24 02:59:30;;;;;;;21.63;15.13;;;;;;;0.63;100.00;95145.16;5049999;28;20205;-60
2021/03/24 03:02:04;;;;;;;22.33;14.67;;;;;;;0.51;100.00;95142.72;5049758;28;20208;-60
2021/03/24 03:04:35;;;;;;;20.30;14.57;;;;;;;0.53;100.00;95150.91;5049658;28;20221;-61
2021/03/24 03:07:07;;;;;;;22.47;14.07;;;;;;;0.51;100.00;95147.03;5049827;28;20197;-59
2021/03/24 03:09:40;;;;;;;19.03;13.30;;;;;;;0.38;100.00;95143.84;5050011;28;20204;-59
2021/03/24 03:12:15;;;;;;;21.97;14.40;;;;;;;0.41;100.00;95147.69;5049674;28;20275;-60
2021/03/24 03:14:48;;;;;;;19.77;13.80;;;;;;;0.35;100.00;95138.41;5049915;28;20326;-59
2021/03/24 03:17:19;;;;;;;21.10;14.17;;;;;;;0.35;100.00;95143.53;5049708;28;20200;-60
2021/03/24 03:19:56;;;;;;;19.33;14.10;;;;;;;0.34;100.00;95147.13;5049579;28;20247;-59
2021/03/24 03:22:27;;;;;;;20.77;15.33;;;;;;;0.32;100.00;95144.78;5049662;28;20292;-59
2021/03/24 03:24:58;;;;;;;23.97;15.80;;;;;;;0.33;100.00;95148.13;5049532;28;20219;-60
2021/03/24 03:27:29;;;;;;;26.30;15.80;;;;;;;0.33;100.00;95154.00;5049867;28;20262;-61
2021/03/24 03:30:00;;;;;;;24.90;16.63;;;;;;;0.25;100.00;95153.66;5049520;28;20194;-59
2021/03/24 03:32:30;;;;;;;20.73;15.00;;;;;;;0.33;100.00;95145.56;5049583;28;20194;-58
2021/03/24 03:35:02;;;;;;;24.27;16.30;;;;;;;0.30;100.00;95144.25;5049880;28;20579;-58
2021/03/24 03:37:30;;;;;;;24.33;16.77;;;;;;;0.41;100.00;95147.69;5049406;28;20294;-59
2021/03/24 03:39:57;;;;;;;21.80;14.93;;;;;;;0.41;100.00;95157.91;5049404;28;20193;-58
2021/03/24 03:42:26;;;;;;;24.27;16.13;;;;;;;0.40;100.00;95159.69;5050445;28;20196;-61
2021/03/24 03:44:56;;;;;;;24.70;15.93;;;;;;;0.37;100.00;95147.41;5053415;28;20207;-57
2021/03/24 03:47:24;;;;;;;22.13;15.40;;;;;;;0.52;100.00;95148.59;5053249;28;20193;-59
2021/03/24 03:49:51;;;;;;;20.73;15.17;;;;;;;0.38;100.00;95148.19;5052907;28;20239;-60
2021/03/24 03:52:40;;;;;;;23.53;15.53;;;;;;;0.47;100.00;95156.97;5053288;28;20205;-59
2021/03/24 03:55:20;;;;;;;23.87;15.00;;;;;;;0.37;100.00;95151.75;5053371;28;20198;-58
2021/03/24 03:57:53;;;;;;;22.43;14.47;;;;;;;0.36;100.00;95155.31;5053161;28;20193;-58
2021/03/24 04:00:26;;;;;;;22.80;15.13;;;;;;;0.47;100.00;95156.97;5052792;28;20207;-58
2021/03/24 04:02:57;;;;;;;21.80;14.10;;;;;;;0.44;100.00;95157.47;5053349;28;20311;-58
2021/03/24 04:05:28;;;;;;;24.60;14.97;;;;;;;0.45;100.00;95164.09;5053065;28;20259;-59
2021/03/24 04:08:00;;;;;;;22.67;15.00;;;;;;;0.43;100.00;95161.03;5053055;28;20198;-59
2021/03/24 04:10:31;;;;;;;19.13;12.87;;;;;;;0.38;100.00;95173.75;5052655;28;20204;-58
2021/03/24 04:13:01;;;;;;;20.53;14.60;;;;;;;0.47;100.00;95167.19;5052723;28;20706;-58
2021/03/24 04:15:31;;;;;;;21.63;13.50;;;;;;;0.51;100.00;95172.59;5052563;28;20199;-57
2021/03/24 04:18:02;;;;;;;21.90;14.00;;;;;;;0.49;100.00;95175.41;5052987;28;20251;-58
2021/03/24 04:20:32;;;;;;;20.23;13.37;;;;;;;0.50;100.00;95171.06;5052616;28;20212;-59
2021/03/24 04:23:02;;;;;;;19.73;13.43;;;;;;;0.43;100.00;95169.47;5052454;28;20229;-59
2021/03/24 04:25:35;;;;;;;20.07;13.03;;;;;;;0.41;100.00;95175.81;5052506;28;20201;-59
2021/03/24 04:28:04;;;;;;;20.03;13.20;;;;;;;0.42;100.00;95179.91;5052333;28;20272;-59
2021/03/24 04:30:38;;;;;;;20.63;14.07;;;;;;;0.40;100.00;95181.91;5052104;28;20204;-59
2021/03/24 04:33:05;;;;;;;21.40;13.97;;;;;;;0.40;100.00;95179.38;5052470;28;20262;-58
2021/03/24 04:35:32;;;;;;;21.50;14.60;;;;;;;0.42;100.00;95190.13;5052332;28;20203;-60
2021/03/24 04:38:04;;;;;;;21.73;14.77;;;;;;;0.43;100.00;95191.69;5052287;28;20203;-60
2021/03/24 04:40:35;;;;;;;21.53;14.13;;;;;;;0.43;100.00;95195.03;5052216;28;20211;-59
2021/03/24 04:43:07;;;;;;;22.47;14.30;;;;;;;0.65;100.00;95195.00;5052134;28;20240;-60
2021/03/24 04:45:42;;;;;;;22.90;14.97;;;;;;;0.64;100.00;95198.59;5052041;28;20194;-59
2021/03/24 04:48:16;;;;;;;21.07;13.37;;;;;;;0.72;100.00;95200.72;5052076;28;20202;-62
2021/03/24 04:50:47;;;;;;;22.33;14.47;;;;;;;0.68;100.00;95206.56;5051630;28;20225;-59
2021/03/24 04:53:17;;;;;;;23.20;16.07;;;;;;;0.79;100.00;95198.00;5051896;28;20197;-62
2021/03/24 04:55:45;;;;;;;24.70;15.90;;;;;;;0.85;100.00;95204.69;5051901;28;20231;-60
2021/03/24 04:58:23;;;;;;;19.73;15.10;;;;;;;0.96;100.00;95200.47;5051979;28;20197;-62
2021/03/24 05:00:56;;;;;;;24.97;14.87;;;;;;;0.98;100.00;95201.00;5051673;28;20652;-60
2021/03/24 05:03:27;;;;;;;19.27;12.97;;;;;;;0.96;100.00;95208.13;5051601;28;20790;-60
2021/03/24 05:05:58;;;;;;;15.40;11.10;;;;;;;1.05;100.00;95210.03;5051831;28;20201;-60
2021/03/24 05:08:32;;;;;;;16.97;11.80;;;;;;;1.08;100.00;95214.69;5051732;28;20553;-59
2021/03/24 05:11:04;;;;;;;16.87;11.00;;;;;;;1.04;100.00;95217.97;5051428;28;20207;-60
2021/03/24 05:13:35;;;;;;;20.50;12.10;;;;;;;1.06;100.00;95221.81;5051817;28;20206;-59
2021/03/24 05:16:13;;;;;;;23.00;13.27;;;;;;;1.11;100.00;95223.66;5051261;28;20197;-59
2021/03/24 05:18:41;;;;;;;20.57;12.17;;;;;;;1.26;100.00;95227.13;5051306;28;20215;-59
2021/03/24 05:21:15;;;;;;;16.63;11.83;;;;;;;1.44;100.00;95228.59;5051123;28;20196;-59
2021/03/24 05:23:43;;;;;;;14.50;10.03;;;;;;;1.29;100.00;95231.03;5050914;28;20233;-60
2021/03/24 05:26:25;;;;;;;14.40;9.47;;;;;;;1.22;100.00;95238.09;5050921;28;20259;-58
2021/03/24 05:28:55;;;;;;;9.33;7.13;;;;;;;1.09;100.00;95244.38;5050880;28;20198;-58
2021/03/24 05:31:27;;;;;;;7.93;5.17;;;;;;;0.95;100.00;95247.53;5050659;28;20673;-60
2021/03/24 05:34:01;;;;;;;10.03;4.57;;;;;;;1.03;100.00;95253.00;5050860;28;20197;-60
2021/03/24 05:36:33;;;;;;;5.23;4.00;;;;;;;1.09;100.00;95251.28;5050688;28;20755;-60
2021/03/24 05:39:11;;;;;;;4.93;3.67;;;;;;;1.08;100.00;95250.50;5050579;28;20667;-61
2021/03/24 05:41:44;;;;;;;6.30;3.87;;;;;;;1.21;100.00;95264.69;5050738;28;20210;-60
2021/03/24 05:44:49;;;;;;;5.47;4.50;;;;;;;1.23;100.00;95280.59;5050398;28;20225;-60
2021/03/24 05:47:50;;;;;;;11.03;6.50;;;;;;;1.33;100.00;95290.94;5050375;28;20288;-60
2021/03/24 05:50:30;;;;;;;3.63;3.10;;;;;;;1.36;100.00;95293.00;5050481;28;20232;-60
2021/03/24 05:53:10;;;;;;;2.90;2.30;;;;;;;1.47;100.00;95299.00;5050254;28;20193;-59
2021/03/24 05:55:45;;;;;;;5.53;2.63;;;;;;;1.65;100.00;95311.47;5050086;28;20195;-60
2021/03/24 05:58:31;;;;;;;4.90;1.90;;;;;;;1.82;100.00;95307.03;5050208;28;20281;-61
2021/03/24 06:01:05;;;;;;;2.47;2.27;;;;;;;1.96;99.84;95312.53;5050004;28;20195;-60
2021/03/24 06:04:03;;;;;;;2.67;2.10;;;;;;;2.03;95.92;95319.03;5050232;28;20228;-60
2021/03/24 06:07:03;;;;;;;4.90;1.70;;;;;;;1.84;95.64;95329.88;5049507;28;20198;-60
2021/03/24 06:09:49;;;;;;;2.77;1.67;;;;;;;1.91;95.23;95346.56;5049893;28;20197;-61
2021/03/24 06:12:32;;;;;;;25.70;10.63;;;;;;;2.19;93.28;95350.69;5049942;28;20733;-60
2021/03/24 06:15:29;;;;;;;24.10;8.90;;;;;;;2.20;91.13;95365.03;5049872;28;20207;-60
2021/03/24 06:18:14;;;;;;;26.23;10.80;;;;;;;2.17;91.02;95371.41;5050463;28;20207;-60
2021/03/24 06:20:47;;;;;;;27.43;9.93;;;;;;;2.10;91.61;95378.53;5049812;28;20593;-61
2021/03/24 06:23:38;;;;;;;20.63;10.23;;;;;;;2.07;91.63;95381.56;5049522;28;20691;-60
2021/03/24 06:26:38;;;;;;;21.30;9.30;;;;;;;2.18;89.42;95397.81;5049661;28;20201;-60
2021/03/24 06:29:13;;;;;;;8.20;4.27;;;;;;;2.06;88.90;95402.31;5038622;28;20221;-60
2021/03/24 06:32:07;;;;;;;13.73;6.37;;;;;;;2.17;87.41;95411.66;5049617;28;20230;-59
2021/03/24 06:35:00;;;;;;;3.37;1.83;;;;;;;2.14;86.60;95407.03;5049573;28;20208;-59
2021/03/24 06:37:47;;;;;;;7.93;4.00;;;;;;;1.95;87.84;95409.13;5049739;28;20645;-59
2021/03/24 06:40:33;;;;;;;9.70;5.33;;;;;;;2.03;86.87;95420.75;5049528;28;20193;-61
2021/03/24 06:43:27;;;;;;;14.10;7.23;;;;;;;2.08;88.13;95416.44;5049397;28;21027;-61
2021/03/24 06:46:08;;;;;;;13.67;6.73;;;;;;;2.30;89.23;95431.75;5047296;28;20198;-61
2021/03/24 06:48:52;;;;;;;6.80;3.13;;;;;;;2.50;82.08;95431.16;5049532;28;20580;-61
2021/03/24 06:51:56;;;;;;;13.53;6.47;;;;;;;2.51;81.53;95435.28;5049074;28;20234;-61
2021/03/24 06:54:51;;;;;;;2.47;1.70;;;;;;;2.44;75.57;95437.28;5047861;28;20194;-61
2021/03/24 06:58:03;;;;;;;3.63;2.50;;;;;;;2.82;74.04;95446.56;5049337;28;20310;-61
2021/03/24 07:00:45;;;;;;;3.57;2.10;;;;;;;2.68;68.81;95459.03;5049155;28;20209;-61
2021/03/24 07:03:41;;;;;;;5.10;2.20;;;;;;;2.30;70.27;95467.66;5049073;28;20234;-61
2021/03/24 07:06:20;;;;;;;4.80;2.13;;;;;;;2.24;70.88;95468.63;5045816;28;20269;-61
2021/03/24 07:09:02;;;;;;;3.67;2.17;;;;;;;2.34;71.81;95466.16;5049625;28;20203;-61
2021/03/24 07:11:51;;;;;;;4.03;2.30;;;;;;;2.50;69.02;95474.75;5049224;28;20225;-61
2021/03/24 07:14:54;;;;;;;5.97;2.77;;;;;;;3.07;69.39;95482.69;5049566;28;20200;-61
2021/03/24 07:17:54;;;;;;;3.87;1.63;;;;;;;2.89;69.26;95483.06;5051890;28;20203;-61
2021/03/24 07:37:37;;;;;;;11.23;6.00;;;;;;;2.29;71.57;95501.25;5148639;27;21329;-60
2021/03/24 07:40:25;;;;;;;15.37;6.90;;;;;;;2.33;71.90;95505.63;5148954;27;20228;-61
2021/03/24 07:43:06;;;;;;;16.90;7.43;;;;;;;2.59;73.89;95509.25;5148644;27;20654;-62
2021/03/24 07:46:08;;;;;;;7.43;3.40;;;;;;;2.27;75.43;95518.63;5148284;27;20236;-62
2021/03/24 07:49:04;;;;;;;8.23;3.50;;;;;;;2.66;75.49;95521.84;5130985;27;20211;-60
2021/03/24 07:52:01;;;;;;;4.37;2.63;;;;;;;2.73;76.08;95518.09;5148378;27;20196;-61
2021/03/24 07:54:35;;;;;;;1.50;1.40;;;;;;;2.91;73.99;95534.91;5148843;27;20678;-61
2021/03/24 07:57:12;;;;;;;2.70;1.80;;;;;;;3.02;73.58;95541.69;5148269;27;20191;-62
2021/03/24 07:59:49;;;;;;;2.07;1.30;;;;;;;2.40;74.66;95554.16;5148237;27;20191;-62
2021/03/24 08:02:38;;;;;;;1.67;1.40;;;;;;;2.28;77.22;95556.09;5148276;27;20544;-61
2021/03/24 08:05:24;;;;;;;4.67;2.27;;;;;;;2.28;81.06;95556.09;5134840;27;20224;-61
2021/03/24 08:07:59;;;;;;;18.37;10.20;;;;;;;1.76;84.42;95581.28;5148344;27;20194;-61
2021/03/24 08:10:35;;;;;;;7.53;4.60;;;;;;;1.41;84.62;95566.97;5148147;27;20291;-61
2021/03/24 08:13:31;;;;;;;5.90;3.53;;;;;;;1.79;79.25;95568.03;5148091;27;20194;-61
2021/03/24 08:16:13;;;;;;;5.87;3.23;;;;;;;2.01;77.41;95568.81;5147806;27;20297;-61
2021/03/24 08:19:02;;;;;;;5.07;2.77;;;;;;;2.53;76.71;95576.88;5147863;27;20440;-62
2021/03/24 08:21:36;;;;;;;7.57;4.27;;;;;;;2.93;74.85;95568.81;5147922;27;20229;-63
2021/03/24 08:24:27;;;;;;;3.80;2.80;;;;;;;3.24;71.11;95586.00;5147710;27;20203;-62
2021/03/24 08:26:57;;;;;;;3.93;2.77;;;;;;;3.34;72.69;95578.38;5147371;27;20316;-61
2021/03/24 08:29:32;;;;;;;2.73;2.20;;;;;;;3.45;69.46;95582.59;5147481;27;20189;-61
2021/03/24 08:32:41;;;;;;;5.13;2.73;;;;;;;2.98;72.47;95594.53;5147401;27;20193;-61
2021/03/24 08:35:39;;;;;;;8.10;4.30;;;;;;;2.74;75.33;95586.31;5147282;27;20228;-61
2021/03/24 08:38:29;;;;;;;7.63;4.83;;;;;;;2.43;75.07;95592.94;5133422;27;20251;-63
2021/03/24 08:41:20;;;;;;;10.33;6.13;;;;;;;2.28;76.02;95600.44;5133422;27;20196;-61
2021/03/24 08:43:58;;;;;;;7.87;3.93;;;;;;;2.34;75.56;95594.34;5133521;27;20200;-61
2021/03/24 08:46:29;;;;;;;7.03;3.33;;;;;;;2.36;78.20;95589.75;5133352;27;20227;-62
2021/03/24 08:48:59;;;;;;;8.87;4.40;;;;;;;2.80;73.52;95597.41;5133305;27;20695;-61
2021/03/24 08:51:45;;;;;;;12.87;6.13;;;;;;;3.19;67.03;95603.94;5133689;27;20202;-60
2021/03/24 08:54:50;;;;;;;13.20;6.57;;;;;;;3.54;65.17;95610.41;5133276;27;20197;-61
2021/03/24 08:57:36;;;;;;;7.20;4.33;;;;;;;4.29;63.11;95602.34;5133190;27;20229;-61
2021/03/24 09:00:19;;;;;;;8.97;4.53;;;;;;;4.41;64.68;95594.44;5132872;27;20285;-60
2021/03/24 09:02:59;;;;;;;13.67;6.43;;;;;;;4.37;64.01;95612.19;5133037;27;20211;-61
2021/03/24 09:05:31;;;;;;;7.47;3.60;;;;;;;4.24;62.02;95610.03;5132871;27;20225;-61
2021/03/24 09:08:29;;;;;;;4.27;2.83;;;;;;;4.42;62.52;95606.28;5133292;27;20194;-61
2021/03/24 09:11:14;;;;;;;6.50;3.53;;;;;;;5.22;58.88;95610.88;5126357;27;20190;-61
2021/03/24 09:13:47;;;;;;;2.07;1.70;;;;;;;5.35;55.14;95614.75;5132702;27;20621;-60
2021/03/24 09:16:53;;;;;;;4.90;3.43;;;;;;;4.96;53.92;95604.91;5133280;27;20241;-62
2021/03/24 09:19:52;;;;;;;13.07;5.73;;;;;;;5.13;56.43;95608.00;5132956;27;20198;-61
2021/03/24 09:22:39;;;;;;;2.10;1.67;;;;;;;5.23;54.98;95614.97;5129548;27;20690;-61
2021/03/24 09:25:25;;;;;;;3.27;2.00;;;;;;;4.37;58.79;95614.75;5132941;27;20233;-61
2021/03/24 09:28:13;;;;;;;9.10;4.20;;;;;;;3.86;58.78;95619.63;5132791;27;20190;-61
2021/03/24 09:31:09;;;;;;;3.87;2.70;;;;;;;4.01;57.89;95618.94;5132716;27;20433;-62
2021/03/24 09:33:51;;;;;;;4.17;1.60;;;;;;;3.97;59.14;95622.25;5132542;27;20251;-62
2021/03/24 09:36:50;;;;;;;2.50;2.00;;;;;;;4.00;55.35;95619.94;5132674;27;20233;-61
2021/03/24 09:39:28;;;;;;;5.53;2.70;;;;;;;3.74;58.85;95631.88;5132683;27;20194;-62
2021/03/24 09:42:03;;;;;;;8.20;3.27;;;;;;;3.16;60.21;95629.34;5132339;27;20194;-62
2021/03/24 09:44:36;;;;;;;5.20;3.10;;;;;;;2.74;63.46;95636.88;5132483;27;20377;-61
2021/03/24 09:47:15;;;;;;;8.93;3.70;;;;;;;2.71;65.82;95638.13;5132212;27;20231;-62
2021/03/24 09:49:46;;;;;;;6.47;3.73;;;;;;;2.25;69.04;95644.47;5131037;27;20197;-61
2021/03/24 09:52:34;;;;;;;3.07;2.10;;;;;;;1.70;72.93;95652.94;5132215;27;20587;-61
2021/03/24 09:55:17;;;;;;;4.50;2.70;;;;;;;1.29;75.93;95655.88;5132033;27;20282;-62
2021/03/24 09:58:34;;;;;;;3.20;1.97;;;;;;;1.81;74.33;95664.13;5112888;27;20194;-62
2021/03/24 10:01:35;;;;;;;12.07;4.30;;;;;;;2.19;72.75;95660.03;5125579;27;20227;-61
2021/03/24 10:04:14;;;;;;;4.73;2.10;;;;;;;2.04;72.06;95669.06;5131715;27;20192;-59
2021/03/24 10:06:56;;;;;;;4.23;2.10;;;;;;;1.96;71.73;95672.03;5131717;27;20283;-62
2021/03/24 10:09:34;;;;;;;5.57;2.77;;;;;;;2.13;71.28;95665.09;5131767;27;20256;-61
2021/03/24 10:12:15;;;;;;;3.00;2.20;;;;;;;1.95;70.64;95667.91;5131773;27;20199;-61
2021/03/24 10:14:50;;;;;;;5.63;3.53;;;;;;;2.07;69.20;95672.94;5131633;27;20220;-60
2021/03/24 10:17:23;;;;;;;7.30;3.73;;;;;;;2.06;64.74;95682.41;5131775;27;20187;-63
2021/03/24 10:19:57;;;;;;;4.93;2.80;;;;;;;2.19;65.67;95675.44;5131826;27;20679;-61
2021/03/24 10:22:33;;;;;;;7.83;3.77;;;;;;;2.27;60.89;95682.72;5131601;27;20188;-61
2021/03/24 10:25:05;;;;;;;3.83;2.63;;;;;;;2.51;61.18;95674.56;5131301;27;20228;-61
2021/03/24 10:27:34;;;;;;;4.90;3.00;;;;;;;2.80;60.42;95679.50;5131660;27;20197;-61
2021/03/24 10:30:08;;;;;;;2.07;1.63;;;;;;;2.39;62.32;95684.16;5131247;27;20211;-60
2021/03/24 10:32:38;;;;;;;2.70;1.50;;;;;;;2.19;65.13;95673.66;5131371;27;20606;-61
2021/03/24 10:35:18;;;;;;;2.90;1.70;;;;;;;2.16;67.63;95671.53;5131183;27;20312;-62
2021/03/24 10:37:54;;;;;;;5.63;2.10;;;;;;;2.16;66.91;95674.09;5131189;27;20187;-64
2021/03/24 10:40:26;;;;;;;3.40;2.40;;;;;;;2.24;65.12;95680.63;5131105;27;20261;-61
2021/03/24 10:42:58;;;;;;;2.40;1.97;;;;;;;2.38;67.71;95674.91;5131105;27;20191;-60
2021/03/24 10:45:30;;;;;;;3.93;2.10;;;;;;;2.39;61.64;95681.56;5131075;27;20287;-62
2021/03/24 10:48:08;;;;;;;4.90;2.50;;;;;;;2.36;59.24;95676.94;5131164;27;20610;-61
2021/03/24 10:50:40;;;;;;;5.10;2.53;;;;;;;2.16;55.20;95671.53;5131107;27;20223;-61
2021/03/24 10:53:13;;;;;;;3.67;2.50;;;;;;;2.30;61.53;95667.63;5131045;27;20233;-60
2021/03/24 10:55:44;;;;;;;4.97;2.50;;;;;;;2.44;59.79;95661.13;5130915;27;20211;-60
2021/03/24 10:58:45;;;;;;;5.63;2.80;;;;;;;2.29;60.64;95666.06;5130778;27;20257;-61
2021/03/24 11:01:16;;;;;;;6.43;4.13;;;;;;;2.39;58.46;95662.88;5130932;27;20212;-61
2021/03/24 11:03:57;;;;;;;5.17;2.87;;;;;;;2.55;59.20;95659.47;5130857;27;20285;-61
2021/03/24 11:06:32;;;;;;;10.93;2.70;;;;;;;2.57;58.61;95658.22;5130698;27;20246;-61
2021/03/24 11:09:07;;;;;;;6.50;2.93;;;;;;;2.55;55.36;95662.81;5131510;27;20190;-61
2021/03/24 11:11:42;;;;;;;4.03;1.97;;;;;;;2.39;60.07;95666.19;5131184;27;20196;-61
2021/03/24 11:14:15;;;;;;;2.27;1.50;;;;;;;2.53;59.07;95656.38;5130601;27;20333;-62
2021/03/24 11:16:46;;;;;;;4.33;2.30;;;;;;;2.51;61.33;95659.19;5130813;27;20196;-61
2021/03/24 11:19:23;;;;;;;5.17;2.53;;;;;;;2.70;59.48;95657.09;5130905;27;20219;-61
2021/03/24 11:22:07;;;;;;;7.70;3.30;;;;;;;2.61;55.41;95658.53;5130738;27;20685;-60
2021/03/24 11:24:50;;;;;;;18.70;7.50;;;;;;;2.39;56.16;95655.94;5130646;28;20201;-62
2021/03/24 11:27:22;;;;;;;9.30;4.80;;;;;;;2.53;55.34;95652.03;5130443;28;20199;-59
2021/03/24 11:29:55;;;;;;;6.10;2.53;;;;;;;2.50;55.76;95651.72;5131019;28;20565;-61
2021/03/24 11:32:32;;;;;;;9.50;2.57;;;;;;;2.43;56.85;95651.91;5130853;28;20197;-61
2021/03/24 11:35:07;;;;;;;6.93;2.87;;;;;;;2.48;55.16;95651.97;5130543;28;20616;-61
2021/03/24 11:37:47;;;;;;;5.67;2.30;;;;;;;2.36;53.22;95656.44;5130497;28;20195;-63
2021/03/24 11:40:29;;;;;;;5.00;2.10;;;;;;;2.66;54.45;95644.97;5130479;28;20242;-59
2021/03/24 11:43:00;;;;;;;8.87;3.20;;;;;;;2.94;54.65;95642.97;5130730;28;20205;-61
2021/03/24 11:45:29;;;;;;;11.13;2.10;;;;;;;3.38;52.28;95642.91;5130252;28;20228;-61
2021/03/24 11:48:16;;;;;;;2.83;1.50;;;;;;;3.55;51.44;95647.91;5130290;28;20201;-61
2021/03/24 11:50:51;;;;;;;3.43;1.20;;;;;;;3.72;54.88;95630.56;5130405;28;20202;-60
2021/03/24 11:53:29;;;;;;;3.53;1.73;;;;;;;3.70;55.29;95637.75;5130697;28;20194;-61
2021/03/24 11:56:01;;;;;;;22.33;5.17;;;;;;;3.44;51.50;95636.75;5130390;28;20610;-61
2021/03/24 11:58:44;;;;;;;21.47;6.60;;;;;;;3.66;51.55;95634.13;5129807;28;20779;-61
2021/03/24 12:01:24;;;;;;;11.33;3.43;;;;;;;3.83;49.59;95632.97;5130654;28;20201;-62
2021/03/24 12:04:06;;;;;;;22.77;6.50;;;;;;;3.80;50.48;95632.69;5130318;28;20453;-61
2021/03/24 12:06:44;;;;;;;25.30;7.57;;;;;;;3.62;49.15;95641.56;5130235;28;20240;-60
2021/03/24 12:09:19;;;;;;;24.17;6.37;;;;;;;3.46;49.62;95627.81;5130174;28;20193;-62
2021/03/24 12:11:47;;;;;;;8.67;2.67;;;;;;;3.87;48.84;95631.47;5131373;27;20199;-61
2021/03/24 12:14:18;;;;;;;10.00;2.77;;;;;;;4.09;47.98;95628.75;5134360;27;20189;-61
2021/03/24 12:16:51;;;;;;;42.90;10.63;;;;;;;3.89;51.66;95626.81;5134420;27;20201;-61
2021/03/24 12:19:30;;;;;;;13.50;5.80;;;;;;;3.99;52.25;95631.25;5134156;27;20212;-61
2021/03/24 12:22:00;;;;;;;7.80;2.77;;;;;;;4.04;48.26;95625.38;5134015;27;20194;-61
2021/03/24 12:24:30;;;;;;;3.33;2.60;;;;;;;4.08;46.70;95627.22;5133998;27;20242;-61
2021/03/24 12:27:14;;;;;;;4.73;2.43;;;;;;;3.94;45.88;95638.16;5133766;27;20250;-60
2021/03/24 12:29:44;;;;;;;3.17;1.90;;;;;;;3.69;45.81;95633.63;5133947;27;20201;-63